createdAt,value
2017-07-18T00:01:18.645Z,78.60
2017-07-18T00:03:44.661Z,78.60
2017-07-18T00:06:11.430Z,78.80
2017-07-18T00:08:37.447Z,78.90
2017-07-18T00:11:03.465Z,78.30
2017-07-18T00:13:29.486Z,78.90
2017-07-18T00:15:55.534Z,78.60
2017-07-18T00:18:21.580Z,79.00
2017-07-18T00:20:47.625Z,79.40
2017-07-18T00:23:13.634Z,79.00
2017-07-18T00:25:39.658Z,79.10
2017-07-18T00:28:06.414Z,79.70
2017-07-18T00:30:32.437Z,79.70
2017-07-18T00:32:58.441Z,79.40
2017-07-18T00:35:24.453Z,79.80
2017-07-18T00:37:50.461Z,79.60
2017-07-18T00:40:16.470Z,79.70
2017-07-18T00:42:42.480Z,80.10
2017-07-18T00:45:08.535Z,79.90
2017-07-18T00:47:34.541Z,79.80
2017-07-18T00:50:00.550Z,79.80
2017-07-18T00:52:27.338Z,80.10
2017-07-18T00:54:53.368Z,80.10
2017-07-18T00:57:19.401Z,80.20
2017-07-18T00:59:45.397Z,80.40
2017-07-18T01:02:11.414Z,80.50
2017-07-18T01:04:37.422Z,80.30
2017-07-18T01:07:03.469Z,80.70
2017-07-18T01:09:29.481Z,80.70
2017-07-18T01:11:55.509Z,80.70
2017-07-18T01:14:21.539Z,80.60
2017-07-18T01:16:47.558Z,80.60
2017-07-18T01:19:13.589Z,80.30
2017-07-18T01:21:39.621Z,80.30
2017-07-18T01:24:05.622Z,80.70
2017-07-18T01:26:31.662Z,81.00
2017-07-18T01:28:57.701Z,81.20
2017-07-18T01:31:24.494Z,81.30
2017-07-18T01:33:50.519Z,81.20
2017-07-18T01:36:16.570Z,81.20
2017-07-18T01:38:42.590Z,81.10
2017-07-18T01:41:08.649Z,81.30
2017-07-18T01:43:34.693Z,81.20
2017-07-18T01:46:00.714Z,81.60
2017-07-18T01:48:27.559Z,81.50
2017-07-18T01:50:53.606Z,81.50
2017-07-18T01:53:20.409Z,81.80
2017-07-18T01:55:46.447Z,81.90
2017-07-18T01:58:13.248Z,82.00
2017-07-18T02:00:39.287Z,81.70
2017-07-18T02:03:06.095Z,82.10
2017-07-18T02:05:32.138Z,82.10
2017-07-18T02:07:58.173Z,82.00
2017-07-18T02:10:24.190Z,81.70
2017-07-18T02:12:50.218Z,81.80
2017-07-18T02:15:16.257Z,81.90
2017-07-18T02:17:42.282Z,82.00
2017-07-18T02:20:08.356Z,80.90
2017-07-18T02:22:34.362Z,82.60
2017-07-18T02:25:00.382Z,82.70
2017-07-18T02:27:26.413Z,82.90
2017-07-18T02:29:53.161Z,82.90
2017-07-18T02:32:19.175Z,82.70
2017-07-18T02:34:45.183Z,83.00
2017-07-18T02:37:11.221Z,82.70
2017-07-18T02:39:37.244Z,82.70
2017-07-18T02:42:03.254Z,83.00
2017-07-18T02:44:29.261Z,83.30
2017-07-18T02:46:55.278Z,83.10
2017-07-18T02:49:22.043Z,82.90
2017-07-18T02:51:48.062Z,82.90
2017-07-18T02:54:14.079Z,83.10
2017-07-18T02:56:40.094Z,83.50
2017-07-18T02:59:06.093Z,83.20
2017-07-18T03:04:28.682Z,82.80
2017-07-18T03:06:55.440Z,83.20
2017-07-18T03:09:21.481Z,83.20
2017-07-18T03:11:47.498Z,82.50
2017-07-18T03:14:13.542Z,82.10
2017-07-18T03:16:39.566Z,82.10
2017-07-18T03:19:05.589Z,82.60
2017-07-18T03:21:31.617Z,82.20
2017-07-18T03:23:57.629Z,81.00
2017-07-18T03:26:23.662Z,81.10
2017-07-18T03:28:49.706Z,81.90
2017-07-18T03:31:15.742Z,81.30
2017-07-18T03:33:41.761Z,81.30
2017-07-18T03:36:07.796Z,81.00
2017-07-18T03:38:33.830Z,81.00
2017-07-18T03:40:59.890Z,80.50
2017-07-18T03:43:25.916Z,80.60
2017-07-18T03:45:51.948Z,80.80
2017-07-18T03:48:17.977Z,80.70
2017-07-18T03:50:44.007Z,81.50
2017-07-18T03:53:10.037Z,80.80
2017-07-18T03:55:36.065Z,80.70
2017-07-18T03:58:02.851Z,80.30
2017-07-18T04:00:28.869Z,80.00
2017-07-18T04:02:54.919Z,80.00
2017-07-18T04:05:20.957Z,79.70
2017-07-18T04:07:46.997Z,80.30
2017-07-18T04:10:13.030Z,79.50
2017-07-18T04:12:39.840Z,80.80
2017-07-18T04:15:05.889Z,80.00
2017-07-18T04:17:31.933Z,79.40
2017-07-18T04:19:57.967Z,79.40
2017-07-18T04:22:23.994Z,79.40
2017-07-18T04:24:50.015Z,80.20
2017-07-18T04:27:16.778Z,79.10
2017-07-18T04:29:42.807Z,79.00
2017-07-18T04:32:08.830Z,78.70
2017-07-18T04:34:34.898Z,78.60
2017-07-18T04:37:00.923Z,78.00
2017-07-18T04:39:26.972Z,78.00
2017-07-18T04:41:53.004Z,78.00
2017-07-18T04:44:19.029Z,78.00
2017-07-18T04:46:45.071Z,78.10
2017-07-18T04:49:11.123Z,78.10
2017-07-18T04:51:37.142Z,77.40
2017-07-18T04:54:03.172Z,77.70
2017-07-18T04:56:29.202Z,78.60
2017-07-18T04:58:55.238Z,77.50
2017-07-18T05:01:22.041Z,77.40
2017-07-18T05:03:48.069Z,77.40
2017-07-18T05:06:14.230Z,77.30
2017-07-18T05:08:40.302Z,77.70
2017-07-18T05:11:07.076Z,76.30
2017-07-18T05:13:33.168Z,76.10
2017-07-18T05:15:59.202Z,75.70
2017-07-18T05:18:25.235Z,75.50
2017-07-18T05:20:51.254Z,75.30
2017-07-18T05:23:17.378Z,75.50
2017-07-18T05:25:59.161Z,75.20
2017-07-18T05:28:25.930Z,74.40
2017-07-18T05:30:51.966Z,74.30
2017-07-18T05:33:17.998Z,74.50
2017-07-18T05:35:44.762Z,74.50
2017-07-18T05:38:10.818Z,74.40
2017-07-18T05:40:36.834Z,73.80
2017-07-18T05:43:03.637Z,72.30
2017-07-18T05:45:29.663Z,72.30
2017-07-18T05:47:55.690Z,72.60
2017-07-18T05:50:21.734Z,72.30
2017-07-18T05:52:47.791Z,71.90
2017-07-18T05:55:14.595Z,73.20
2017-07-18T05:57:40.685Z,72.40
2017-07-18T06:00:07.025Z,72.70
2017-07-18T06:02:33.814Z,71.90
2017-07-18T06:04:59.897Z,71.80
2017-07-18T06:07:25.941Z,71.40
2017-07-18T06:09:51.981Z,70.80
2017-07-18T06:12:18.046Z,71.80
2017-07-18T06:14:44.075Z,70.90
2017-07-18T06:17:10.098Z,69.80
2017-07-18T06:19:36.141Z,69.00
2017-07-18T06:22:02.938Z,70.10
2017-07-18T06:24:28.970Z,69.30
2017-07-18T06:26:55.802Z,66.70
2017-07-18T06:29:22.577Z,69.00
2017-07-18T06:31:48.621Z,68.80
2017-07-18T06:34:14.694Z,69.30
2017-07-18T06:36:40.791Z,68.40
2017-07-18T06:39:06.826Z,66.30
2017-07-18T06:41:32.846Z,66.50
2017-07-18T06:43:58.873Z,64.20
2017-07-18T06:46:24.891Z,67.00
2017-07-18T06:48:51.693Z,63.20
2017-07-18T06:51:17.721Z,63.20
2017-07-18T06:53:43.765Z,62.70
2017-07-18T06:56:09.790Z,63.30
2017-07-18T06:58:35.841Z,62.90
2017-07-18T07:01:01.867Z,63.40
2017-07-18T07:03:28.639Z,59.60
2017-07-18T07:05:54.673Z,59.50
2017-07-18T07:08:20.721Z,58.60
2017-07-18T07:10:46.745Z,60.40
2017-07-18T07:13:12.769Z,58.90
2017-07-18T07:15:38.802Z,60.50
2017-07-18T07:18:04.820Z,59.10
2017-07-18T07:20:30.875Z,58.60
2017-07-18T07:22:56.894Z,58.90
2017-07-18T07:25:22.903Z,58.90
2017-07-18T07:27:48.937Z,61.00
2017-07-18T07:30:14.970Z,61.40
2017-07-18T07:32:41.794Z,59.20
2017-07-18T07:35:08.562Z,58.50
2017-07-18T07:37:34.604Z,58.50
2017-07-18T07:40:00.621Z,58.70
2017-07-18T07:42:26.688Z,58.00
2017-07-18T07:44:52.725Z,59.30
2017-07-18T07:47:18.759Z,60.00
2017-07-18T07:49:44.783Z,60.90
2017-07-18T07:52:11.549Z,60.20
2017-07-18T07:54:37.561Z,59.60
2017-07-18T07:57:03.620Z,60.60
2017-07-18T07:59:29.643Z,59.20
2017-07-18T08:01:56.409Z,59.70
2017-07-18T08:04:22.465Z,59.70
2017-07-18T08:06:48.509Z,59.90
2017-07-18T08:09:14.560Z,60.30
2017-07-18T08:11:40.585Z,60.90
2017-07-18T08:14:06.613Z,59.80
2017-07-18T08:16:33.377Z,60.90
2017-07-18T08:18:59.406Z,60.80
2017-07-18T08:21:25.448Z,59.80
2017-07-18T08:23:51.484Z,59.60
2017-07-18T08:26:17.513Z,59.00
2017-07-18T08:28:43.541Z,60.40
2017-07-18T08:31:09.645Z,58.60
2017-07-18T08:33:35.665Z,58.50
2017-07-18T08:36:01.681Z,59.20
2017-07-18T08:38:27.712Z,58.90
2017-07-18T08:40:54.504Z,59.00
2017-07-18T08:43:20.541Z,59.00
2017-07-18T08:45:47.316Z,58.30
2017-07-18T08:48:13.350Z,57.70
2017-07-18T08:50:39.404Z,58.80
2017-07-18T08:53:05.433Z,57.30
2017-07-18T08:55:31.458Z,55.20
2017-07-18T08:57:57.508Z,57.20
2017-07-18T09:00:24.269Z,57.40
2017-07-18T09:02:50.353Z,57.40
2017-07-18T09:05:17.117Z,54.90
2017-07-18T09:07:43.156Z,54.90
2017-07-18T09:10:09.187Z,54.50
2017-07-18T09:12:35.950Z,57.80
2017-07-18T09:15:01.990Z,57.70
2017-07-18T09:17:28.006Z,57.60
2017-07-18T09:19:54.029Z,58.10
2017-07-18T09:22:20.054Z,54.90
2017-07-18T09:24:46.073Z,55.20
2017-07-18T09:27:12.094Z,54.80
2017-07-18T09:29:38.130Z,54.60
2017-07-18T09:32:04.172Z,54.10
2017-07-18T09:34:30.202Z,54.10
2017-07-18T09:36:56.220Z,55.20
2017-07-18T09:39:22.267Z,54.70
2017-07-18T09:41:48.289Z,52.40
2017-07-18T09:44:14.305Z,54.30
2017-07-18T09:46:40.343Z,52.10
2017-07-18T09:49:06.378Z,53.00
2017-07-18T09:51:32.405Z,53.90
2017-07-18T09:53:58.440Z,52.50
2017-07-18T09:56:24.491Z,55.50
2017-07-18T09:58:50.510Z,53.60
2017-07-18T10:01:16.531Z,54.80
2017-07-18T10:03:42.557Z,54.90
2017-07-18T10:06:08.592Z,54.00
2017-07-18T10:08:34.641Z,53.60
2017-07-18T10:11:00.673Z,52.70
2017-07-18T10:13:26.709Z,50.90
2017-07-18T10:15:52.767Z,52.60
2017-07-18T10:18:18.813Z,53.20
2017-07-18T10:20:44.841Z,53.60
2017-07-18T10:23:10.896Z,52.10
2017-07-18T10:25:36.930Z,52.80
2017-07-18T10:28:02.976Z,52.70
2017-07-18T10:30:29.760Z,55.60
2017-07-18T10:32:55.812Z,55.60
2017-07-18T10:35:21.841Z,52.70
2017-07-18T10:37:47.869Z,53.10
2017-07-18T10:40:13.898Z,48.30
2017-07-18T10:42:39.939Z,46.00
2017-07-18T10:45:06.751Z,46.60
2017-07-18T10:47:32.813Z,46.50
2017-07-18T10:49:58.865Z,42.90
2017-07-18T10:52:24.916Z,41.60
2017-07-18T10:54:50.960Z,43.30
2017-07-18T10:57:17.003Z,36.80
2017-07-18T10:59:43.038Z,35.80
2017-07-18T11:02:09.141Z,35.30
2017-07-18T11:04:35.906Z,34.50
2017-07-18T11:07:01.952Z,34.40
2017-07-18T11:09:34.919Z,33.60
2017-07-18T11:12:00.973Z,32.80
2017-07-18T11:14:27.726Z,30.80
2017-07-18T11:16:53.754Z,30.70
2017-07-18T11:19:19.801Z,30.90
2017-07-18T11:21:45.838Z,34.30
2017-07-18T11:24:11.867Z,32.10
2017-07-18T11:26:37.908Z,33.90
2017-07-18T11:29:04.695Z,37.80
2017-07-18T11:31:30.724Z,37.70
2017-07-18T11:33:56.758Z,35.80
2017-07-18T11:36:22.773Z,38.40
2017-07-18T11:38:49.538Z,37.60
2017-07-18T11:41:15.565Z,37.60
2017-07-18T11:43:41.602Z,36.80
2017-07-18T11:46:08.377Z,33.10
2017-07-18T11:48:34.410Z,33.00
2017-07-18T11:51:00.430Z,31.40
2017-07-18T11:53:26.465Z,28.20
2017-07-18T11:55:53.234Z,28.80
2017-07-18T11:58:19.272Z,28.80
2017-07-18T12:00:45.318Z,29.80
2017-07-18T12:03:11.359Z,30.30
2017-07-18T12:05:37.377Z,29.00
2017-07-18T12:08:03.401Z,29.10
2017-07-18T12:10:29.453Z,30.70
2017-07-18T12:12:55.476Z,29.30
2017-07-18T12:15:21.499Z,27.10
2017-07-18T12:17:47.510Z,29.00
2017-07-18T12:20:13.556Z,28.50
2017-07-18T12:22:39.578Z,28.10
2017-07-18T12:25:05.594Z,27.60
2017-07-18T12:27:32.372Z,28.10
2017-07-18T12:29:58.409Z,28.10
2017-07-18T12:32:24.456Z,28.40
2017-07-18T12:34:50.474Z,28.20
2017-07-18T12:37:16.520Z,31.20
2017-07-18T12:39:42.556Z,29.50
2017-07-18T12:42:08.590Z,29.20
2017-07-18T12:44:34.605Z,30.00
2017-07-18T12:47:00.664Z,29.00
2017-07-18T12:49:26.681Z,29.40
2017-07-18T12:51:52.701Z,28.10
2017-07-18T12:54:18.724Z,28.70
2017-07-18T12:56:44.749Z,29.30
2017-07-18T12:59:10.778Z,29.20
2017-07-18T13:01:36.813Z,29.30
2017-07-18T13:04:02.872Z,30.30
2017-07-18T13:06:28.894Z,31.40
2017-07-18T13:08:54.922Z,33.30
2017-07-18T13:11:20.938Z,34.10
2017-07-18T13:13:46.979Z,34.70
2017-07-18T13:16:13.006Z,34.20
2017-07-18T13:18:39.042Z,35.90
2017-07-18T13:21:05.120Z,34.20
2017-07-18T13:23:31.877Z,35.50
2017-07-18T13:25:57.911Z,35.40
2017-07-18T13:28:23.969Z,35.60
2017-07-18T13:30:50.020Z,33.40
2017-07-18T13:33:16.049Z,35.30
2017-07-18T13:35:42.097Z,30.50
2017-07-18T13:38:08.136Z,32.60
2017-07-18T13:40:34.166Z,34.20
2017-07-18T13:43:00.186Z,31.00
2017-07-18T13:45:26.237Z,30.90
2017-07-18T13:47:52.273Z,32.80
2017-07-18T13:50:18.313Z,30.70
2017-07-18T13:52:44.351Z,30.00
2017-07-18T13:55:11.118Z,29.10
2017-07-18T13:57:37.182Z,29.20
2017-07-18T14:00:03.226Z,29.40
2017-07-18T14:02:29.296Z,29.60
2017-07-18T14:04:55.330Z,28.10
2017-07-18T14:07:21.384Z,29.30
2017-07-18T14:09:47.423Z,29.00
2017-07-18T14:12:13.468Z,29.30
2017-07-18T14:14:39.498Z,28.90
2017-07-18T14:17:05.531Z,28.60
2017-07-18T14:19:31.557Z,27.80
2017-07-18T14:21:57.615Z,26.80
2017-07-18T14:24:23.637Z,28.60
2017-07-18T14:26:49.661Z,28.00
2017-07-18T14:29:15.692Z,27.20
2017-07-18T14:31:41.713Z,28.30
2017-07-18T14:34:07.741Z,28.90
2017-07-18T14:36:33.761Z,29.80
2017-07-18T14:38:59.800Z,28.60
2017-07-18T14:41:25.845Z,29.80
2017-07-18T14:43:51.878Z,29.40
2017-07-18T14:46:17.927Z,29.40
2017-07-18T14:48:43.984Z,29.20
2017-07-18T14:51:10.049Z,28.00
2017-07-18T14:53:36.082Z,28.20
2017-07-18T14:56:02.867Z,29.30
2017-07-18T14:58:28.902Z,29.20
2017-07-18T15:00:55.685Z,27.90
2017-07-18T15:03:21.722Z,27.90
2017-07-18T15:05:47.749Z,27.80
2017-07-18T15:08:13.793Z,27.30
2017-07-18T15:10:39.835Z,28.20
2017-07-18T15:13:05.885Z,28.70
2017-07-18T15:15:32.664Z,28.80
2017-07-18T15:17:58.689Z,28.70
2017-07-18T15:20:25.474Z,30.70
2017-07-18T15:22:51.502Z,30.40
2017-07-18T15:25:17.530Z,28.90
2017-07-18T15:27:43.568Z,29.70
2017-07-18T15:30:10.333Z,27.20
2017-07-18T15:32:36.362Z,27.20
2017-07-18T15:35:07.464Z,27.00
2017-07-18T15:37:33.523Z,28.20
2017-07-18T15:39:59.544Z,26.80
2017-07-18T15:42:26.324Z,26.60
2017-07-18T15:44:52.344Z,26.50
2017-07-18T15:47:18.360Z,27.80
2017-07-18T15:49:44.399Z,29.00
2017-07-18T15:52:10.440Z,29.70
2017-07-18T15:54:36.492Z,28.80
2017-07-18T15:57:02.524Z,28.90
2017-07-18T15:59:29.301Z,29.10
2017-07-18T16:01:55.337Z,29.60
2017-07-18T16:04:21.368Z,29.40
2017-07-18T16:06:47.394Z,29.20
2017-07-18T16:09:13.441Z,31.00
2017-07-18T16:11:39.484Z,29.80
2017-07-18T16:14:05.506Z,29.80
2017-07-18T16:16:31.540Z,29.30
2017-07-18T16:18:57.556Z,29.80
2017-07-18T16:21:23.581Z,30.10
2017-07-18T16:23:49.620Z,30.40
2017-07-18T16:26:15.649Z,31.00
2017-07-18T16:28:42.437Z,31.30
2017-07-18T16:31:08.476Z,31.20
2017-07-18T16:33:35.229Z,30.90
2017-07-18T16:36:01.279Z,30.40
2017-07-18T16:38:27.301Z,30.40
2017-07-18T16:40:53.317Z,29.10
2017-07-18T16:43:19.344Z,29.40
2017-07-18T16:45:46.100Z,29.70
2017-07-18T16:48:12.160Z,29.60
2017-07-18T16:50:38.196Z,30.70
2017-07-18T16:53:04.260Z,32.60
2017-07-18T16:55:30.281Z,34.20
2017-07-18T16:57:56.341Z,37.10
2017-07-18T17:00:22.379Z,39.20
2017-07-18T17:02:48.412Z,39.10
2017-07-18T17:05:14.455Z,41.10
2017-07-18T17:07:40.472Z,42.00
2017-07-18T17:10:06.501Z,42.50
2017-07-18T17:12:32.525Z,42.60
2017-07-18T17:14:58.561Z,43.00
2017-07-18T17:17:24.600Z,43.90
2017-07-18T17:19:50.646Z,44.70
2017-07-18T17:22:16.669Z,45.00
2017-07-18T17:24:42.680Z,46.80
2017-07-18T17:27:08.697Z,46.10
2017-07-18T17:29:34.736Z,46.40
2017-07-18T17:32:00.777Z,46.80
2017-07-18T17:34:26.792Z,47.90
2017-07-18T17:36:52.819Z,48.90
2017-07-18T17:39:18.858Z,48.40
2017-07-18T17:41:45.629Z,48.80
2017-07-18T17:44:11.640Z,48.70
2017-07-18T17:46:37.676Z,48.90
2017-07-18T17:49:03.712Z,50.30
2017-07-18T17:51:29.767Z,51.10
2017-07-18T17:53:55.801Z,50.80
2017-07-18T17:56:21.838Z,50.00
2017-07-18T17:58:48.602Z,50.20
2017-07-18T18:01:15.132Z,50.20
2017-07-18T18:03:49.284Z,51.20
2017-07-18T18:06:15.296Z,51.10
2017-07-18T18:08:41.336Z,51.30
2017-07-18T18:11:15.115Z,51.80
2017-07-18T18:13:41.902Z,52.00
2017-07-18T18:16:07.924Z,52.00
2017-07-18T18:18:34.049Z,53.60
2017-07-18T18:21:00.204Z,52.60
2017-07-18T18:23:26.225Z,52.10
2017-07-18T18:25:52.245Z,54.00
2017-07-18T18:28:18.282Z,53.60
2017-07-18T18:30:44.301Z,53.60
2017-07-18T18:33:10.321Z,54.00
2017-07-18T18:35:36.345Z,53.00
2017-07-18T18:38:03.101Z,54.70
2017-07-18T18:40:29.170Z,54.60
2017-07-18T18:42:55.920Z,54.40
2017-07-18T18:45:21.941Z,54.60
2017-07-18T18:47:47.953Z,54.50
2017-07-18T18:50:13.981Z,54.60
2017-07-18T18:52:40.020Z,55.30
2017-07-18T18:55:06.057Z,55.10
2017-07-18T18:57:32.073Z,57.00
2017-07-18T18:59:58.869Z,55.40
2017-07-18T19:02:32.485Z,56.00
2017-07-18T19:04:58.541Z,56.00
2017-07-18T19:07:24.568Z,56.00
2017-07-18T19:09:51.325Z,56.00
2017-07-18T19:12:17.349Z,56.00
2017-07-18T19:14:43.369Z,56.60
2017-07-18T19:17:09.405Z,57.20
2017-07-18T19:19:35.429Z,58.70
2017-07-18T19:22:02.197Z,57.40
2017-07-18T19:24:28.213Z,57.70
2017-07-18T19:26:54.251Z,57.80
2017-07-18T19:29:20.302Z,57.30
2017-07-18T19:31:46.324Z,58.00
2017-07-18T19:34:12.364Z,57.90
2017-07-18T19:36:38.385Z,58.20
2017-07-18T19:39:04.417Z,59.40
2017-07-18T19:41:30.537Z,60.30
2017-07-18T19:43:57.332Z,60.70
2017-07-18T19:46:23.344Z,60.70
2017-07-18T19:48:49.384Z,60.70
2017-07-18T19:51:16.153Z,61.20
2017-07-18T19:53:42.199Z,61.20
2017-07-18T19:56:09.001Z,62.20
2017-07-18T19:58:35.224Z,62.50
2017-07-18T20:01:01.255Z,62.80
2017-07-18T20:03:28.029Z,63.10
2017-07-18T20:05:54.053Z,63.00
2017-07-18T20:08:20.060Z,63.70
2017-07-18T20:10:46.093Z,64.00
2017-07-18T20:13:12.113Z,64.50
2017-07-18T20:15:38.251Z,64.50
2017-07-18T20:18:04.305Z,64.90
2017-07-18T20:20:30.320Z,64.50
2017-07-18T20:22:56.364Z,64.30
2017-07-18T20:25:22.377Z,64.70
2017-07-18T20:27:48.405Z,64.40
2017-07-18T20:30:14.425Z,64.50
2017-07-18T20:32:40.454Z,64.20
2017-07-18T20:35:06.489Z,64.50
2017-07-18T20:37:32.805Z,64.50
2017-07-18T20:39:59.561Z,65.10
2017-07-18T20:42:25.580Z,64.80
2017-07-18T20:44:51.613Z,65.30
2017-07-18T20:47:17.658Z,64.80
2017-07-18T20:49:43.702Z,65.00
2017-07-18T20:52:09.722Z,65.00
2017-07-18T20:54:35.749Z,64.30
2017-07-18T20:57:01.788Z,65.10
2017-07-18T20:59:28.558Z,64.50
2017-07-18T21:01:54.577Z,64.50
2017-07-18T21:04:20.612Z,64.90
2017-07-18T21:06:46.635Z,64.40
2017-07-18T21:09:12.672Z,64.60
2017-07-18T21:11:39.437Z,64.80
2017-07-18T21:14:05.580Z,64.70
2017-07-18T21:16:31.606Z,64.80
2017-07-18T21:18:58.389Z,65.10
2017-07-18T21:21:24.433Z,65.10
2017-07-18T21:23:51.228Z,65.20
2017-07-18T21:26:17.252Z,65.20
2017-07-18T21:28:43.297Z,65.30
2017-07-18T21:31:09.353Z,65.60
2017-07-18T21:33:35.389Z,65.80
2017-07-18T21:36:02.162Z,65.70
2017-07-18T21:38:28.197Z,65.60
2017-07-18T21:40:54.247Z,65.80
2017-07-18T21:43:20.308Z,65.60
2017-07-18T21:45:46.361Z,65.90
2017-07-18T21:48:12.444Z,65.90
2017-07-18T21:50:38.477Z,66.00
2017-07-18T21:53:05.257Z,66.00
2017-07-18T21:55:31.285Z,66.00
2017-07-18T21:57:57.332Z,65.80
2017-07-18T22:00:23.361Z,66.30
2017-07-18T22:02:49.429Z,66.40
2017-07-18T22:05:15.452Z,65.90
2017-07-18T22:07:42.214Z,66.40
2017-07-18T22:10:08.256Z,66.40
2017-07-18T22:12:34.297Z,66.30
2017-07-18T22:15:01.072Z,66.10
2017-07-18T22:17:27.126Z,66.00
2017-07-18T22:19:53.898Z,65.60
2017-07-18T22:22:19.962Z,65.60
2017-07-18T22:24:46.731Z,65.30
2017-07-18T22:27:12.769Z,65.20
2017-07-18T22:29:38.825Z,65.40
2017-07-18T22:32:04.862Z,65.60
2017-07-18T22:34:30.949Z,65.80
2017-07-18T22:36:56.976Z,65.70
2017-07-18T22:39:22.997Z,66.00
2017-07-18T22:41:49.021Z,65.90
2017-07-18T22:44:15.054Z,65.70
2017-07-18T22:46:41.829Z,65.80
2017-07-18T22:49:07.861Z,65.70
2017-07-18T22:51:33.893Z,66.10
2017-07-18T22:53:59.929Z,66.30
2017-07-18T22:56:25.962Z,66.20
2017-07-18T22:58:51.987Z,66.70
2017-07-18T23:01:24.960Z,66.40
2017-07-18T23:03:51.006Z,66.40
2017-07-18T23:06:17.780Z,67.30
2017-07-18T23:08:43.849Z,67.30
2017-07-18T23:11:10.601Z,66.90
2017-07-18T23:13:36.641Z,66.90
2017-07-18T23:16:02.707Z,66.60
2017-07-18T23:18:28.741Z,66.90
2017-07-18T23:20:54.792Z,66.80
2017-07-18T23:23:21.569Z,67.10
2017-07-18T23:25:47.576Z,66.80
2017-07-18T23:28:13.597Z,67.10
2017-07-18T23:30:39.612Z,67.50
2017-07-18T23:33:05.680Z,67.10
2017-07-18T23:35:31.740Z,67.30
2017-07-18T23:37:57.766Z,67.70
2017-07-18T23:40:23.813Z,67.60
2017-07-18T23:42:49.833Z,67.60
2017-07-18T23:45:15.861Z,67.60
2017-07-18T23:47:41.897Z,68.00
2017-07-18T23:50:07.937Z,68.10
2017-07-18T23:52:33.960Z,68.30
2017-07-18T23:54:59.985Z,68.80
2017-07-18T23:57:26.024Z,69.00
2017-07-18T23:59:52.045Z,68.90
